Time;durP1;ratioP1;P1;durP2;ratioP2;P2;SDS_P1;SDS_P2;PMS_P1;PMS_P2;Temp;Humidity;BMP_temperature;BMP_pressure;BME280_temperature;BME280_humidity;BME280_pressure;Samples;Min_cycle;Max_cycle;Signal;HPM_P1;HPM_P2
2023/01/24 00:02:21;;;;;;;57.08;24.75;;;;;;;1.96;100.00;103726.91;5257159;28;20048;-74
2023/01/24 00:04:52;;;;;;;59.47;26.02;;;;;;;1.96;100.00;103726.91;5245990;28;20021;-74
2023/01/24 00:07:22;;;;;;;59.95;24.15;;;;;;;1.95;100.00;103725.13;5245652;28;20074;-74
2023/01/24 00:09:53;;;;;;;59.22;24.83;;;;;;;1.90;100.00;103725.25;5245522;28;20024;-74
2023/01/24 00:12:23;;;;;;;63.20;26.30;;;;;;;1.94;100.00;103721.63;5245601;28;20028;-74
2023/01/24 00:14:54;;;;;;;62.70;26.15;;;;;;;1.93;100.00;103721.69;5249508;28;20099;-74
2023/01/24 00:17:24;;;;;;;53.33;24.60;;;;;;;1.91;100.00;103724.38;5257845;28;20024;-74
2023/01/24 00:19:54;;;;;;;57.95;24.80;;;;;;;1.94;100.00;103723.41;5245434;28;20032;-74
2023/01/24 00:22:25;;;;;;;57.15;24.42;;;;;;;1.95;100.00;103726.00;5245121;28;20112;-75
2023/01/24 00:24:55;;;;;;;56.67;24.35;;;;;;;1.92;100.00;103723.47;5245476;28;20024;-74
2023/01/24 00:27:26;;;;;;;58.20;25.05;;;;;;;1.91;100.00;103734.06;5245150;28;20074;-74
2023/01/24 00:29:57;;;;;;;52.13;24.02;;;;;;;1.94;100.00;103731.34;5245092;28;20369;-74
2023/01/24 00:32:27;;;;;;;58.50;24.98;;;;;;;1.94;100.00;103723.41;5245207;28;20119;-74
2023/01/24 00:34:58;;;;;;;54.53;24.55;;;;;;;1.90;100.00;103711.16;5245290;28;20477;-75
2023/01/24 00:37:28;;;;;;;58.42;23.65;;;;;;;1.90;100.00;103724.38;5244770;28;20032;-74
2023/01/24 00:39:59;;;;;;;59.17;25.95;;;;;;;1.91;100.00;103723.47;5245346;28;20081;-74
2023/01/24 00:42:29;;;;;;;57.35;24.58;;;;;;;1.91;100.00;103723.47;5245125;28;20082;-74
2023/01/24 00:45:00;;;;;;;53.33;22.92;;;;;;;1.92;100.00;103717.28;5245353;28;20111;-74
2023/01/24 00:47:30;;;;;;;59.80;26.67;;;;;;;1.90;100.00;103719.09;5244515;28;20016;-74
2023/01/24 00:50:01;;;;;;;63.78;26.10;;;;;;;1.90;100.00;103716.44;5245209;28;20024;-74
2023/01/24 00:52:31;;;;;;;61.20;25.65;;;;;;;1.89;100.00;103707.63;5244829;28;20025;-74
2023/01/24 00:55:02;;;;;;;58.47;24.10;;;;;;;1.86;100.00;103713.03;5244295;28;20031;-74
2023/01/24 00:57:32;;;;;;;57.30;25.08;;;;;;;1.88;100.00;103710.34;5248497;28;20028;-74
2023/01/24 01:00:03;;;;;;;51.60;23.83;;;;;;;1.88;100.00;103715.63;5251161;28;20024;-75
2023/01/24 01:02:34;;;;;;;58.70;25.15;;;;;;;1.88;100.00;103718.28;5250490;28;20039;-74
2023/01/24 01:05:05;;;;;;;60.00;25.00;;;;;;;1.89;100.00;103712.94;5251376;28;20020;-74
2023/01/24 01:07:36;;;;;;;61.13;26.33;;;;;;;1.90;100.00;103713.81;5244275;28;20497;-74
2023/01/24 01:10:07;;;;;;;61.10;24.63;;;;;;;1.89;100.00;103699.69;5244659;28;20029;-74
2023/01/24 01:12:37;;;;;;;58.53;24.88;;;;;;;1.88;100.00;103705.03;5245253;28;20032;-74
2023/01/24 01:15:08;;;;;;;55.70;24.42;;;;;;;1.86;100.00;103696.25;5249199;28;20024;-74
2023/01/24 01:17:39;;;;;;;58.35;24.02;;;;;;;1.86;100.00;103706.84;5254491;28;20025;-74
2023/01/24 01:20:10;;;;;;;51.08;23.35;;;;;;;1.88;100.00;103718.28;5244512;28;20024;-74
2023/01/24 01:22:40;;;;;;;57.92;24.70;;;;;;;1.89;100.00;103717.38;5244354;28;20081;-74
2023/01/24 01:25:11;;;;;;;51.80;23.17;;;;;;;1.86;100.00;103714.78;5245072;28;20031;-74
2023/01/24 01:27:41;;;;;;;54.65;23.52;;;;;;;1.86;100.00;103717.44;5257965;28;20111;-75
2023/01/24 01:30:12;;;;;;;53.08;23.05;;;;;;;1.87;100.00;103721.84;5244476;28;20017;-74
2023/01/24 01:32:42;;;;;;;54.45;23.02;;;;;;;1.88;100.00;103715.63;5244337;28;20505;-74
2023/01/24 01:35:13;;;;;;;57.10;23.77;;;;;;;1.87;100.00;103722.72;5243138;28;20032;-74
2023/01/24 01:37:43;;;;;;;54.83;23.70;;;;;;;1.85;100.00;103716.56;5244057;28;20460;-74
2023/01/24 01:40:14;;;;;;;54.03;23.52;;;;;;;1.84;100.00;103714.84;5244366;28;20112;-74
2023/01/24 01:42:55;;;;;;;55.15;24.27;;;;;;;1.85;100.00;103721.84;5244511;28;20024;-74
2023/01/24 01:45:40;;;;;;;56.08;22.90;;;;;;;1.84;100.00;103713.97;5243545;28;20063;-74
2023/01/24 01:48:36;;;;;;;51.00;22.37;;;;;;;1.83;100.00;103710.44;5244126;28;20037;-74
2023/01/24 01:51:19;;;;;;;50.80;23.15;;;;;;;1.84;100.00;103714.84;5236828;28;20068;-74
2023/01/24 01:54:00;;;;;;;51.70;22.65;;;;;;;1.85;100.00;103710.41;5242963;28;20086;-74
2023/01/24 01:56:40;;;;;;;54.03;22.65;;;;;;;1.83;100.00;103714.88;5244160;28;20020;-74
2023/01/24 01:59:34;;;;;;;51.67;22.45;;;;;;;1.84;100.00;103711.31;5262735;28;20028;-74
2023/01/24 02:02:07;;;;;;;50.88;21.17;;;;;;;1.82;100.00;103703.44;5252048;28;20029;-74
2023/01/24 02:04:46;;;;;;;49.15;21.95;;;;;;;1.85;100.00;103703.31;5254942;28;20059;-74
2023/01/24 02:07:36;;;;;;;54.95;22.00;;;;;;;1.86;100.00;103699.78;5243664;28;20028;-75
2023/01/24 02:10:07;;;;;;;56.47;22.40;;;;;;;1.86;100.00;103691.84;5244136;28;20025;-75
2023/01/24 02:12:45;;;;;;;52.40;22.75;;;;;;;1.86;100.00;103696.25;5243975;28;20027;-74
2023/01/24 02:18:10;;;;;;;45.95;21.00;;;;;;;1.83;100.00;103691.94;5249891;28;20031;-74
2023/01/24 02:20:46;;;;;;;52.55;22.00;;;;;;;1.86;100.00;103691.84;5247061;28;20123;-74
2023/01/24 02:23:56;;;;;;;48.25;21.17;;;;;;;1.84;100.00;103690.16;5247813;28;20028;-74
2023/01/24 02:26:28;;;;;;;49.65;20.60;;;;;;;1.84;100.00;103693.66;5198044;28;20041;-74
2023/01/24 02:29:05;;;;;;;50.00;21.65;;;;;;;1.84;100.00;103692.78;5246761;28;20115;-75
2023/01/24 02:31:59;;;;;;;48.80;20.60;;;;;;;1.84;100.00;103687.50;5246678;28;20033;-74
2023/01/24 02:34:30;;;;;;;41.80;18.15;;;;;;;1.87;100.00;103685.66;5248268;28;20107;-74
2023/01/24 02:37:05;;;;;;;46.38;19.75;;;;;;;1.91;100.00;103678.47;5257863;28;20572;-75
2023/01/24 02:39:45;;;;;;;47.53;19.25;;;;;;;1.87;100.00;103685.66;5249762;28;20031;-74
2023/01/24 02:42:23;;;;;;;45.90;18.92;;;;;;;1.87;100.00;103690.94;5255415;28;20078;-74
2023/01/24 02:45:07;;;;;;;47.60;19.83;;;;;;;1.89;100.00;103691.75;5246611;28;20105;-74
2023/01/24 02:47:43;;;;;;;46.38;20.40;;;;;;;1.89;100.00;103689.09;5246011;28;20108;-74
2023/01/24 02:50:16;;;;;;;41.78;17.95;;;;;;;1.91;100.00;103699.66;5244951;28;20017;-74
2023/01/24 02:58:27;;;;;;;46.83;20.23;;;;;;;1.87;100.00;103690.06;5245361;28;20024;-74
2023/01/24 03:00:58;;;;;;;41.63;18.30;;;;;;;1.88;100.00;103686.50;5246024;28;20442;-74
2023/01/24 03:03:38;;;;;;;45.30;18.80;;;;;;;1.87;100.00;103687.44;5259875;28;20043;-74
2023/01/24 03:06:10;;;;;;;39.53;17.83;;;;;;;1.87;100.00;103684.78;5246268;28;20016;-75
2023/01/24 03:08:41;;;;;;;42.90;17.50;;;;;;;1.89;100.00;103683.81;5245526;28;20020;-74
2023/01/24 03:11:12;;;;;;;42.92;18.25;;;;;;;1.89;100.00;103683.81;5245610;28;20028;-74
2023/01/24 03:36:31;;;;;;;46.65;19.85;;;;;;;1.86;100.00;103675.97;5245954;28;20108;-74
2023/01/24 03:41:51;;;;;;;40.33;18.80;;;;;;;1.85;100.00;103683.94;5246363;28;20398;-74
2023/01/24 03:44:21;;;;;;;47.25;19.60;;;;;;;1.87;100.00;103684.78;5244947;28;20044;-74
2023/01/24 03:46:51;;;;;;;41.97;18.88;;;;;;;1.88;100.00;103673.28;5246202;28;20020;-74
2023/01/24 03:52:30;;;;;;;49.10;20.98;;;;;;;1.87;100.00;103684.78;5253091;28;20020;-74
2023/01/24 03:55:01;;;;;;;43.70;21.52;;;;;;;1.87;100.00;103682.13;5246443;28;20636;-74
2023/01/24 03:57:31;;;;;;;46.88;22.10;;;;;;;1.86;100.00;103681.25;5259233;28;20104;-74
2023/01/24 04:00:02;;;;;;;49.20;21.63;;;;;;;1.86;100.00;103686.56;5257336;28;20049;-74
2023/01/24 04:02:33;;;;;;;49.20;21.42;;;;;;;1.83;100.00;103688.41;5248147;28;20027;-74
2023/01/24 04:05:12;;;;;;;51.25;22.45;;;;;;;1.84;100.00;103672.47;5245784;28;20405;-74
2023/01/24 04:07:43;;;;;;;50.67;23.10;;;;;;;1.84;100.00;103680.41;5245818;28;20050;-74
2023/01/24 04:10:14;;;;;;;50.53;21.52;;;;;;;1.83;100.00;103675.19;5245574;28;20043;-75
2023/01/24 04:12:45;;;;;;;49.97;22.23;;;;;;;1.81;100.00;103676.09;5255778;28;20108;-75
2023/01/24 04:15:18;;;;;;;49.92;22.15;;;;;;;1.84;100.00;103674.25;5256258;28;20028;-75
2023/01/24 04:17:49;;;;;;;50.05;23.00;;;;;;;1.85;100.00;103668.03;5254867;28;20077;-74
2023/01/24 04:20:19;;;;;;;45.90;22.13;;;;;;;1.84;100.00;103671.59;5244460;28;20472;-74
2023/01/24 04:22:50;;;;;;;52.45;22.58;;;;;;;1.83;100.00;103670.75;5245649;28;20027;-74
2023/01/24 04:25:20;;;;;;;53.45;23.02;;;;;;;1.84;100.00;103677.78;5245785;28;20059;-75
2023/01/24 04:27:51;;;;;;;51.22;22.27;;;;;;;1.84;100.00;103677.78;5245111;28;20619;-74
2023/01/24 04:30:22;;;;;;;48.05;20.95;;;;;;;1.83;100.00;103680.47;5245430;28;20476;-74
2023/01/24 04:32:52;;;;;;;48.13;20.98;;;;;;;1.79;100.00;103671.72;5245365;28;20028;-74
2023/01/24 04:35:25;;;;;;;51.55;23.08;;;;;;;1.79;100.00;103669.94;5254588;28;20023;-74
2023/01/24 04:38:02;;;;;;;51.88;22.80;;;;;;;1.80;100.00;103681.41;5249057;28;20028;-74
2023/01/24 04:40:32;;;;;;;47.78;21.00;;;;;;;1.80;100.00;103671.69;5245013;28;20035;-74
2023/01/24 04:43:03;;;;;;;53.50;22.75;;;;;;;1.84;100.00;103674.25;5248984;28;20091;-74
2023/01/24 04:45:34;;;;;;;52.53;22.85;;;;;;;1.81;100.00;103675.22;5253538;28;20107;-74
2023/01/24 04:48:05;;;;;;;51.80;23.17;;;;;;;1.76;100.00;103671.84;5257077;28;20503;-74
2023/01/24 04:50:35;;;;;;;54.35;23.45;;;;;;;1.77;100.00;103676.22;5245318;28;20408;-74
2023/01/24 04:53:06;;;;;;;51.22;22.73;;;;;;;1.77;100.00;103671.78;5244795;28;20028;-74
2023/01/24 04:55:36;;;;;;;55.10;23.00;;;;;;;1.79;100.00;103674.38;5244977;28;20050;-74
2023/01/24 04:58:07;;;;;;;51.63;23.27;;;;;;;1.75;100.00;103670.94;5244631;28;20468;-74
2023/01/24 05:00:37;;;;;;;52.35;23.00;;;;;;;1.74;100.00;103673.63;5259545;28;20412;-74
2023/01/24 05:03:08;;;;;;;47.63;22.13;;;;;;;1.76;100.00;103674.47;5255266;28;20396;-74
2023/01/24 05:05:38;;;;;;;49.83;22.42;;;;;;;1.73;100.00;103667.47;5246663;28;20028;-74
2023/01/24 05:08:08;;;;;;;54.13;21.80;;;;;;;1.74;100.00;103674.50;5244727;28;20020;-74
2023/01/24 05:10:39;;;;;;;50.80;23.45;;;;;;;1.74;100.00;103676.28;5244592;28;20063;-74
2023/01/24 05:13:10;;;;;;;51.58;22.80;;;;;;;1.76;100.00;103672.69;5244662;28;20020;-74
2023/01/24 05:15:49;;;;;;;53.67;23.73;;;;;;;1.75;100.00;103678.00;5255299;28;20020;-74
2023/01/24 05:18:20;;;;;;;54.90;22.95;;;;;;;1.70;100.00;103678.13;5247487;28;20037;-74
2023/01/24 05:20:50;;;;;;;52.33;22.67;;;;;;;1.67;100.00;103678.22;5244769;28;20484;-74
2023/01/24 05:23:21;;;;;;;54.08;23.48;;;;;;;1.65;100.00;103687.09;5262072;28;20483;-74
2023/01/24 05:25:51;;;;;;;54.22;23.25;;;;;;;1.63;100.00;103683.63;5254713;28;20020;-74
2023/01/24 05:28:22;;;;;;;55.83;24.58;;;;;;;1.66;100.00;103688.84;5248056;28;20085;-74
2023/01/24 05:30:52;;;;;;;54.42;23.25;;;;;;;1.66;100.00;103683.56;5253449;28;20032;-74
2023/01/24 05:33:23;;;;;;;52.78;23.00;;;;;;;1.66;100.00;103688.84;5244512;28;20108;-74
2023/01/24 05:35:58;;;;;;;54.35;23.13;;;;;;;1.67;100.00;103691.47;5244627;28;20032;-74
2023/01/24 05:38:28;;;;;;;56.72;23.65;;;;;;;1.65;100.00;103693.25;5244248;28;20029;-74
2023/01/24 05:41:00;;;;;;;56.58;24.10;;;;;;;1.65;100.00;103695.03;5244214;28;20100;-74
2023/01/24 05:43:31;;;;;;;58.35;23.38;;;;;;;1.64;100.00;103699.47;5244466;28;20032;-74
2023/01/24 05:46:05;;;;;;;56.45;24.38;;;;;;;1.63;100.00;103702.16;5244738;28;21319;-74
2023/01/24 05:48:35;;;;;;;61.30;25.58;;;;;;;1.63;100.00;103703.03;5243248;28;20108;-74
2023/01/24 05:51:08;;;;;;;60.28;25.40;;;;;;;1.64;100.00;103696.81;5248890;28;20020;-74
2023/01/24 05:53:40;;;;;;;55.38;23.85;;;;;;;1.64;100.00;103704.75;5252659;28;20541;-74
2023/01/24 05:56:14;;;;;;;57.40;24.02;;;;;;;1.62;100.00;103700.41;5247491;28;20024;-74
2023/01/24 05:58:46;;;;;;;61.08;25.77;;;;;;;1.63;100.00;103704.81;5248211;28;20361;-74
2023/01/24 06:01:19;;;;;;;62.70;24.02;;;;;;;1.61;100.00;103707.50;5268293;28;20024;-74
2023/01/24 06:03:51;;;;;;;63.65;26.80;;;;;;;1.61;100.00;103701.31;5265339;28;20485;-74
2023/01/24 06:06:24;;;;;;;57.13;24.10;;;;;;;1.58;100.00;103710.22;5248318;28;20059;-74
2023/01/24 06:08:54;;;;;;;58.88;26.13;;;;;;;1.60;100.00;103711.03;5248232;28;20480;-74
2023/01/24 06:11:27;;;;;;;70.32;29.25;;;;;;;1.61;100.00;103717.19;5248402;28;20030;-74
2023/01/24 06:13:58;;;;;;;62.40;25.83;;;;;;;1.60;100.00;103715.44;5248552;28;20024;-74
2023/01/24 06:16:28;;;;;;;68.10;28.45;;;;;;;1.60;100.00;103710.16;5263913;28;20035;-74
2023/01/24 06:18:59;;;;;;;68.03;27.63;;;;;;;1.61;100.00;103718.09;5256176;28;20032;-74
2023/01/24 06:22:01;;;;;;;73.72;29.65;;;;;;;1.61;100.00;103726.03;5253985;28;20104;-74
2023/01/24 06:24:32;;;;;;;70.38;27.88;;;;;;;1.60;100.00;103721.59;5214046;28;20043;-74
2023/01/24 06:27:03;;;;;;;67.97;27.25;;;;;;;1.57;100.00;103728.78;5261561;28;20818;-74
2023/01/24 06:29:34;;;;;;;75.82;29.55;;;;;;;1.60;100.00;103731.31;5247844;28;20024;-74
2023/01/24 06:32:12;;;;;;;71.40;28.75;;;;;;;1.57;100.00;103732.28;5248054;28;20035;-74
2023/01/24 06:35:11;;;;;;;67.22;27.40;;;;;;;1.52;100.00;103731.53;5261402;28;20025;-74
2023/01/24 06:37:51;;;;;;;64.03;27.58;;;;;;;1.51;100.00;103738.59;5247458;28;20031;-74
2023/01/24 06:40:23;;;;;;;74.10;30.65;;;;;;;1.53;100.00;103735.91;5247845;28;20017;-74
2023/01/24 06:42:54;;;;;;;76.80;31.52;;;;;;;1.51;100.00;103737.75;5247773;28;20063;-74
2023/01/24 06:45:24;;;;;;;75.55;29.98;;;;;;;1.54;100.00;103740.28;5246749;28;20056;-74
2023/01/24 06:47:56;;;;;;;73.53;29.25;;;;;;;1.54;100.00;103733.22;5247213;28;20025;-74
2023/01/24 06:50:31;;;;;;;72.13;30.45;;;;;;;1.55;100.00;103744.66;5247831;28;20025;-74
2023/01/24 06:53:01;;;;;;;77.45;30.52;;;;;;;1.52;100.00;103740.34;5247824;28;20070;-74
2023/01/24 06:55:32;;;;;;;74.35;30.73;;;;;;;1.49;100.00;103740.41;5247523;28;20032;-74
2023/01/24 06:58:03;;;;;;;76.53;30.67;;;;;;;1.49;100.00;103739.53;5247006;28;20052;-74
2023/01/24 07:00:34;;;;;;;78.28;31.25;;;;;;;1.53;100.00;103752.66;5249224;28;20035;-74
2023/01/24 07:03:07;;;;;;;76.22;32.58;;;;;;;1.53;100.00;103736.78;5258605;28;20016;-75
2023/01/24 07:05:38;;;;;;;80.10;32.63;;;;;;;1.51;100.00;103753.63;5249134;28;20040;-74
2023/01/24 07:08:09;;;;;;;76.20;32.33;;;;;;;1.48;100.00;103753.69;5247079;28;20086;-75
2023/01/24 07:10:39;;;;;;;76.63;32.10;;;;;;;1.53;100.00;103749.16;5255173;28;20024;-74
2023/01/24 07:13:10;;;;;;;71.97;32.13;;;;;;;1.55;100.00;103744.66;5253904;28;20366;-74
2023/01/24 07:15:40;;;;;;;88.60;32.88;;;;;;;1.53;100.00;103760.59;5266234;28;20556;-74
2023/01/24 07:18:12;;;;;;;81.35;32.55;;;;;;;1.49;100.00;103753.63;5266087;28;20047;-74
2023/01/24 07:20:43;;;;;;;76.15;32.20;;;;;;;1.44;100.00;103760.81;5257054;28;20111;-74
2023/01/24 07:23:27;;;;;;;73.47;30.88;;;;;;;1.44;100.00;103762.59;5267687;28;20135;-74
2023/01/24 07:25:59;;;;;;;78.75;32.85;;;;;;;1.44;100.00;103762.59;5255461;28;20017;-74
2023/01/24 07:28:29;;;;;;;74.88;32.20;;;;;;;1.46;100.00;103759.00;5266816;28;20020;-74
2023/01/24 07:31:00;;;;;;;80.00;33.95;;;;;;;1.43;100.00;103769.66;5253556;28;20038;-74
2023/01/24 07:33:30;;;;;;;80.10;33.40;;;;;;;1.43;100.00;103767.00;5247358;28;20020;-74
2023/01/24 07:36:11;;;;;;;81.43;33.00;;;;;;;1.43;100.00;103767.00;5250165;28;20020;-75
2023/01/24 07:38:42;;;;;;;81.25;32.53;;;;;;;1.41;100.00;103770.59;5243608;28;20115;-74
2023/01/24 07:41:13;;;;;;;83.95;35.15;;;;;;;1.45;100.00;103782.84;5249728;28;20051;-74
2023/01/24 07:43:43;;;;;;;78.10;32.05;;;;;;;1.41;100.00;103792.63;5255279;28;20020;-74
2023/01/24 07:46:13;;;;;;;82.80;32.50;;;;;;;1.43;100.00;103788.16;5245366;28;20123;-75
2023/01/24 07:48:45;;;;;;;83.93;34.65;;;;;;;1.44;100.00;103796.97;5258022;28;20031;-75
2023/01/24 07:51:16;;;;;;;81.63;34.25;;;;;;;1.43;100.00;103797.88;5259471;28;20538;-75
2023/01/24 07:53:47;;;;;;;85.75;34.88;;;;;;;1.43;100.00;103801.41;5257890;28;20035;-74
2023/01/24 07:56:18;;;;;;;82.28;33.55;;;;;;;1.46;100.00;103800.47;5245191;28;20130;-74
2023/01/24 07:58:48;;;;;;;79.90;32.22;;;;;;;1.45;100.00;103807.50;5257818;28;20504;-75
2023/01/24 08:01:23;;;;;;;91.65;34.25;;;;;;;1.43;100.00;103824.34;5245425;28;20065;-74
2023/01/24 08:03:55;;;;;;;81.77;34.07;;;;;;;1.43;100.00;103813.75;5249840;28;20024;-74
2023/01/24 08:06:26;;;;;;;82.53;33.35;;;;;;;1.43;100.00;103811.97;5253715;28;20292;-75
2023/01/24 08:08:56;;;;;;;83.22;33.22;;;;;;;1.43;100.00;103811.97;5250228;28;20020;-75
2023/01/24 08:11:27;;;;;;;78.68;32.30;;;;;;;1.46;100.00;103819.00;5252702;28;20093;-75
2023/01/24 08:13:57;;;;;;;83.63;32.90;;;;;;;1.48;100.00;103814.53;5258554;28;20020;-74
2023/01/24 08:16:27;;;;;;;90.07;34.60;;;;;;;1.48;100.00;103819.81;5259784;28;20081;-74
2023/01/24 08:18:58;;;;;;;84.88;34.85;;;;;;;1.47;100.00;103820.72;5253042;28;20388;-75
2023/01/24 08:21:28;;;;;;;86.35;36.13;;;;;;;1.47;100.00;103820.72;5265071;28;20020;-75
2023/01/24 08:23:59;;;;;;;85.40;34.05;;;;;;;1.48;100.00;103825.13;5265598;28;20028;-75
2023/01/24 08:26:29;;;;;;;83.63;35.00;;;;;;;1.47;100.00;103818.09;5248455;28;20027;-74
2023/01/24 08:29:00;;;;;;;90.22;33.95;;;;;;;1.51;100.00;103822.41;5244675;28;20392;-75
2023/01/24 08:31:30;;;;;;;91.30;36.53;;;;;;;1.51;100.00;103822.41;5249076;28;20092;-74
2023/01/24 08:34:01;;;;;;;88.07;35.13;;;;;;;1.52;100.00;103824.16;5252034;28;20031;-75
2023/01/24 08:36:31;;;;;;;78.47;33.30;;;;;;;1.49;100.00;103818.91;5250092;28;20099;-75
2023/01/24 08:39:04;;;;;;;84.00;34.35;;;;;;;1.52;100.00;103821.50;5251924;28;20032;-74
2023/01/24 08:41:35;;;;;;;83.10;33.72;;;;;;;1.54;100.00;103817.88;5244566;28;20068;-75
2023/01/24 08:44:05;;;;;;;79.97;34.40;;;;;;;1.54;100.00;103817.03;5244774;28;20048;-74
2023/01/24 08:46:36;;;;;;;87.97;34.17;;;;;;;1.55;100.00;103824.06;5254684;28;20024;-74
2023/01/24 08:49:06;;;;;;;84.75;34.35;;;;;;;1.56;100.00;103823.16;5244406;28;20048;-74
2023/01/24 08:51:37;;;;;;;84.88;33.83;;;;;;;1.58;100.00;103826.63;5244209;28;20020;-75
2023/01/24 08:54:08;;;;;;;80.90;32.70;;;;;;;1.58;100.00;103828.41;5244142;28;20491;-75
2023/01/24 08:56:38;;;;;;;78.50;32.22;;;;;;;1.59;100.00;103828.38;5242565;28;20103;-75
2023/01/24 08:59:09;;;;;;;81.35;33.55;;;;;;;1.61;100.00;103830.97;5261338;28;20065;-75
2023/01/24 09:01:40;;;;;;;81.70;34.20;;;;;;;1.63;100.00;103830.06;5252466;28;20028;-75
2023/01/24 09:04:11;;;;;;;75.00;31.58;;;;;;;1.61;100.00;103839.81;5257705;28;20460;-74
2023/01/24 09:06:42;;;;;;;77.40;31.27;;;;;;;1.65;100.00;103836.16;5244000;28;20017;-75
2023/01/24 09:09:12;;;;;;;78.32;31.80;;;;;;;1.63;100.00;103845.94;5256891;28;20078;-74
2023/01/24 09:11:43;;;;;;;71.47;30.58;;;;;;;1.63;100.00;103843.28;5257634;28;20431;-75
2023/01/24 09:14:13;;;;;;;69.45;29.95;;;;;;;1.60;100.00;103843.34;5244166;28;20079;-74
2023/01/24 09:16:44;;;;;;;69.78;30.50;;;;;;;1.61;100.00;103847.75;5258487;28;20516;-75
2023/01/24 09:19:14;;;;;;;63.35;30.00;;;;;;;1.61;100.00;103849.50;5244171;28;20107;-75
2023/01/24 09:21:48;;;;;;;77.07;31.40;;;;;;;1.61;100.00;103853.03;5243759;28;20025;-74
2023/01/24 09:24:19;;;;;;;68.63;30.63;;;;;;;1.65;100.00;103852.03;5244038;28;20035;-74
2023/01/24 09:26:49;;;;;;;70.65;29.40;;;;;;;1.72;100.00;103844.84;5242195;28;20024;-75
2023/01/24 09:29:21;;;;;;;70.68;30.85;;;;;;;1.70;100.00;103849.28;5244406;28;20067;-74
2023/01/24 09:31:55;;;;;;;71.35;29.92;;;;;;;1.69;100.00;103847.56;5244088;28;20024;-75
2023/01/24 09:34:25;;;;;;;61.15;28.15;;;;;;;1.63;100.00;103848.56;5243997;28;20142;-74
2023/01/24 09:36:56;;;;;;;67.57;28.60;;;;;;;1.68;100.00;103857.28;5242224;28;20077;-74
2023/01/24 09:39:26;;;;;;;67.35;29.17;;;;;;;1.70;100.00;103852.81;5243023;28;20021;-75
2023/01/24 09:42:03;;;;;;;68.40;29.88;;;;;;;1.73;100.00;103855.41;5242885;28;20035;-75
2023/01/24 09:45:05;;;;;;;68.25;29.20;;;;;;;1.75;100.00;103850.06;5243832;28;20473;-74
2023/01/24 09:47:48;;;;;;;64.55;28.10;;;;;;;1.75;100.00;103858.88;5232365;28;20036;-74
2023/01/24 09:50:46;;;;;;;68.47;28.98;;;;;;;1.72;100.00;103858.97;5243890;28;20074;-75
2023/01/24 09:53:23;;;;;;;70.40;30.27;;;;;;;1.75;100.00;103858.00;5244081;28;20550;-75
2023/01/24 09:55:53;;;;;;;65.13;29.42;;;;;;;1.74;100.00;103850.97;5243632;28;20028;-74
2023/01/24 09:58:33;;;;;;;64.82;30.15;;;;;;;1.75;100.00;103853.56;5255130;28;20031;-75
2023/01/24 10:01:10;;;;;;;63.10;28.38;;;;;;;1.79;100.00;103857.91;5243800;28;20032;-75
2023/01/24 10:03:42;;;;;;;67.55;29.40;;;;;;;1.86;100.00;103849.81;5255966;28;20055;-75
2023/01/24 10:06:20;;;;;;;67.32;29.88;;;;;;;1.87;100.00;103854.22;5244044;28;20020;-75
2023/01/24 10:09:26;;;;;;;64.50;27.83;;;;;;;1.77;100.00;103857.06;5242325;28;20552;-75
2023/01/24 10:12:23;;;;;;;69.38;28.85;;;;;;;1.77;100.00;103864.16;5242481;28;20035;-75
2023/01/24 10:15:17;;;;;;;63.00;30.02;;;;;;;1.78;100.00;103858.81;5246095;28;20103;-75
2023/01/24 10:18:10;;;;;;;65.70;28.38;;;;;;;1.81;100.00;103860.53;5251867;28;20541;-74
2023/01/24 10:21:02;;;;;;;63.05;27.40;;;;;;;1.83;100.00;103856.06;5242125;28;20091;-74
2023/01/24 10:23:38;;;;;;;66.22;28.95;;;;;;;1.86;100.00;103857.75;5243304;28;20047;-75
2023/01/24 10:26:19;;;;;;;67.97;28.88;;;;;;;1.87;100.00;103860.38;5243102;28;20138;-74
2023/01/24 10:28:52;;;;;;;65.18;28.80;;;;;;;1.87;100.00;103867.44;5241544;28;20039;-74
2023/01/24 10:31:27;;;;;;;62.85;28.85;;;;;;;1.85;100.00;103864.81;5242866;28;20035;-74
2023/01/24 10:34:10;;;;;;;60.28;27.80;;;;;;;1.88;100.00;103869.19;5243698;28;20024;-75
2023/01/24 10:36:56;;;;;;;63.78;27.55;;;;;;;1.88;100.00;103867.41;5242715;28;20038;-74
2023/01/24 10:39:27;;;;;;;58.05;26.85;;;;;;;1.90;100.00;103862.06;5242286;28;20029;-74
2023/01/24 10:41:58;;;;;;;62.97;27.15;;;;;;;1.94;100.00;103863.75;5247427;28;20095;-75
2023/01/24 10:44:34;;;;;;;68.03;28.23;;;;;;;1.99;100.00;103852.13;5260371;28;20028;-75
2023/01/24 10:47:40;;;;;;;59.17;26.63;;;;;;;1.98;100.00;103860.97;5244979;28;20025;-75
2023/01/24 10:50:14;;;;;;;53.80;25.20;;;;;;;1.94;100.00;103855.78;5214099;28;20032;-75
2023/01/24 10:52:48;;;;;;;56.28;25.25;;;;;;;1.90;100.00;103860.28;5246619;28;20028;-75
2023/01/24 10:55:25;;;;;;;55.92;26.58;;;;;;;1.88;100.00;103863.88;5245698;28;20032;-75
2023/01/24 10:57:55;;;;;;;60.75;25.95;;;;;;;1.86;100.00;103861.28;5245813;28;20416;-75
2023/01/24 11:00:34;;;;;;;57.17;25.73;;;;;;;1.86;100.00;103861.28;5259791;28;20027;-75
2023/01/24 11:03:21;;;;;;;57.78;26.00;;;;;;;1.94;100.00;103853.16;5246712;28;20032;-74
2023/01/24 11:05:54;;;;;;;56.67;26.38;;;;;;;1.93;100.00;103854.94;5246530;28;20029;-74
2023/01/24 11:08:31;;;;;;;57.35;25.10;;;;;;;1.98;100.00;103850.38;5245595;28;20064;-74
2023/01/24 11:11:17;;;;;;;58.45;24.02;;;;;;;2.00;100.00;103850.34;5246663;28;20051;-75
2023/01/24 11:13:52;;;;;;;55.17;24.40;;;;;;;2.06;100.00;103851.09;5246249;28;20408;-75
2023/01/24 11:16:30;;;;;;;51.63;23.73;;;;;;;2.13;100.00;103848.28;5261965;28;20016;-75
2023/01/24 11:19:04;;;;;;;52.28;23.80;;;;;;;2.12;100.00;103855.34;5246264;28;20028;-75
2023/01/24 11:21:50;;;;;;;48.30;22.45;;;;;;;2.17;100.00;103845.50;5244853;28;20051;-75
2023/01/24 11:24:22;;;;;;;52.45;26.05;;;;;;;2.17;100.00;103850.81;5246253;28;20111;-75
2023/01/24 11:27:05;;;;;;;48.00;23.65;;;;;;;2.18;100.00;103838.44;5258784;28;20023;-75
2023/01/24 11:29:35;;;;;;;50.05;24.48;;;;;;;2.03;100.00;103840.56;5246173;28;20119;-75
2023/01/24 11:32:48;;;;;;;54.17;24.98;;;;;;;2.06;100.00;103840.50;5244954;28;20024;-74
2023/01/24 11:35:24;;;;;;;49.67;22.77;;;;;;;2.06;100.00;103842.28;5246317;28;20032;-75
2023/01/24 11:38:21;;;;;;;48.85;22.67;;;;;;;2.07;100.00;103838.72;5244996;28;20481;-75
2023/01/24 11:41:01;;;;;;;54.08;23.17;;;;;;;2.12;100.00;103831.50;5245968;28;20054;-75
2023/01/24 11:43:59;;;;;;;55.63;24.58;;;;;;;2.14;100.00;103832.34;5244429;28;20060;-75
2023/01/24 11:46:46;;;;;;;50.30;23.52;;;;;;;2.19;100.00;103837.53;5245139;28;20032;-74
2023/01/24 11:49:20;;;;;;;52.03;23.98;;;;;;;2.16;100.00;103830.53;5245503;28;20043;-75
2023/01/24 11:52:02;;;;;;;51.97;24.85;;;;;;;2.18;100.00;103836.66;5254982;28;20036;-75
2023/01/24 11:54:44;;;;;;;51.97;23.60;;;;;;;2.18;100.00;103833.13;5260701;28;20033;-75
2023/01/24 11:57:39;;;;;;;54.45;24.77;;;;;;;2.22;100.00;103833.03;5243505;28;20090;-75
2023/01/24 12:00:27;;;;;;;55.72;25.02;;;;;;;2.29;100.00;103826.66;5258285;28;20028;-75
2023/01/24 12:03:20;;;;;;;55.08;25.27;;;;;;;2.17;100.00;103826.09;5246963;28;20056;-75
2023/01/24 12:06:05;;;;;;;54.53;23.45;;;;;;;2.17;100.00;103821.69;5246530;28;20549;-75
2023/01/24 12:08:43;;;;;;;;;;;;;;;2.16;100.00;103819.03;5244747;28;20707;-75
2023/01/24 12:11:36;;;;;;;51.78;24.75;;;;;;;2.12;100.00;103815.63;5244533;28;19953;-75
2023/01/24 12:14:37;;;;;;;54.75;23.23;;;;;;;2.11;100.00;103802.41;5245932;28;20099;-75
2023/01/24 12:17:25;;;;;;;50.53;24.00;;;;;;;2.15;100.00;103802.28;5259175;28;20032;-75
2023/01/24 12:20:17;;;;;;;53.55;25.40;;;;;;;2.19;100.00;103803.94;5259549;28;20034;-75
2023/01/24 12:22:49;;;;;;;53.10;24.25;;;;;;;2.17;100.00;103803.13;5246082;28;20059;-75